Airport View

Enter AWOS ICAO identifier for current METAR.

ex. KFNL

KTEW 280335Z AUTO 34006KT 10SM BKN060 17/16 A2976 RMK AO2 T01720156

28 Sep 2020 03:43

Frequency: 119.425

Phone: 517-676-5607

Other Area AWOS: KLAN - KFPK - KJXN - KOZW

TAF KLAN 272340Z 2800/2824 28007KT P6SM OVC080 FM280600 32006KT P6SM -SHRA OVC040 FM281100 33005KT 6SM -SHRA BR OVC025 FM281200 33005KT 5SM -RA BR OVC009